sensor_id;sensor_type;location;lat;lon;timestamp;pressure;altitude;pressure_sealevel;temperature;humidity
75008;BME280;63554;48.940;12.050;2024-02-04T00:02:43;98349.66;;;5.54;100.00
75008;BME280;63554;48.940;12.050;2024-02-04T00:06:45;98355.50;;;5.50;100.00
75008;BME280;63554;48.940;12.050;2024-02-04T00:10:48;98352.47;;;5.45;100.00
75008;BME280;63554;48.940;12.050;2024-02-04T00:14:51;98342.03;;;5.33;100.00
75008;BME280;63554;48.940;12.050;2024-02-04T00:18:55;98329.28;;;5.27;100.00
75008;BME280;63554;48.940;12.050;2024-02-04T00:22:58;98323.22;;;5.25;100.00
75008;BME280;63554;48.940;12.050;2024-02-04T00:27:01;98302.06;;;5.22;100.00
75008;BME280;63554;48.940;12.050;2024-02-04T00:31:04;98313.63;;;5.23;100.00
75008;BME280;63554;48.940;12.050;2024-02-04T00:35:08;98320.50;;;5.17;100.00
75008;BME280;63554;48.940;12.050;2024-02-04T00:39:11;98301.19;;;5.13;100.00
75008;BME280;63554;48.940;12.050;2024-02-04T00:43:14;98315.13;;;5.17;100.00
75008;BME280;63554;48.940;12.050;2024-02-04T00:47:16;98301.03;;;5.15;100.00
75008;BME280;63554;48.940;12.050;2024-02-04T00:51:21;98304.75;;;5.22;100.00
75008;BME280;63554;48.940;12.050;2024-02-04T00:55:24;98297.06;;;5.27;100.00
75008;BME280;63554;48.940;12.050;2024-02-04T00:59:27;98298.44;;;5.31;100.00
75008;BME280;63554;48.940;12.050;2024-02-04T01:03:31;98297.09;;;5.35;100.00
75008;BME280;63554;48.940;12.050;2024-02-04T01:07:35;98296.59;;;5.40;100.00
75008;BME280;63554;48.940;12.050;2024-02-04T01:11:38;98312.53;;;5.42;100.00
75008;BME280;63554;48.940;12.050;2024-02-04T01:15:41;98310.38;;;5.45;100.00
75008;BME280;63554;48.940;12.050;2024-02-04T01:19:44;98313.22;;;5.52;100.00
75008;BME280;63554;48.940;12.050;2024-02-04T01:23:48;98312.06;;;5.54;100.00
75008;BME280;63554;48.940;12.050;2024-02-04T01:27:51;98293.09;;;5.56;100.00
75008;BME280;63554;48.940;12.050;2024-02-04T01:31:54;98302.19;;;5.55;100.00
75008;BME280;63554;48.940;12.050;2024-02-04T01:35:56;98314.94;;;5.61;100.00
75008;BME280;63554;48.940;12.050;2024-02-04T01:40:01;98325.03;;;5.67;100.00
75008;BME280;63554;48.940;12.050;2024-02-04T01:44:04;98324.00;;;5.68;100.00
75008;BME280;63554;48.940;12.050;2024-02-04T01:48:07;98325.84;;;5.68;100.00
75008;BME280;63554;48.940;12.050;2024-02-04T01:52:10;98319.34;;;5.70;100.00
75008;BME280;63554;48.940;12.050;2024-02-04T01:56:15;98313.63;;;5.73;100.00
75008;BME280;63554;48.940;12.050;2024-02-04T02:00:18;98301.22;;;5.72;100.00
75008;BME280;63554;48.940;12.050;2024-02-04T02:04:21;98303.91;;;5.72;100.00
75008;BME280;63554;48.940;12.050;2024-02-04T02:08:24;98299.69;;;5.70;100.00
75008;BME280;63554;48.940;12.050;2024-02-04T02:12:30;98285.94;;;5.73;100.00
75008;BME280;63554;48.940;12.050;2024-02-04T02:16:35;98270.66;;;5.73;100.00
75008;BME280;63554;48.940;12.050;2024-02-04T02:20:44;98277.72;;;5.74;100.00
75008;BME280;63554;48.940;12.050;2024-02-04T02:24:57;98272.81;;;5.70;100.00
75008;BME280;63554;48.940;12.050;2024-02-04T02:29:00;98270.28;;;5.68;100.00
75008;BME280;63554;48.940;12.050;2024-02-04T02:33:04;98257.22;;;5.65;100.00
75008;BME280;63554;48.940;12.050;2024-02-04T02:37:14;98251.50;;;5.60;100.00
75008;BME280;63554;48.940;12.050;2024-02-04T02:41:20;98270.47;;;5.59;100.00
75008;BME280;63554;48.940;12.050;2024-02-04T02:45:24;98280.19;;;5.60;100.00
75008;BME280;63554;48.940;12.050;2024-02-04T02:49:28;98279.53;;;5.58;100.00
75008;BME280;63554;48.940;12.050;2024-02-04T02:53:31;98288.41;;;5.58;100.00
75008;BME280;63554;48.940;12.050;2024-02-04T02:57:35;98280.19;;;5.60;100.00
75008;BME280;63554;48.940;12.050;2024-02-04T03:01:39;98300.50;;;5.62;100.00
75008;BME280;63554;48.940;12.050;2024-02-04T03:05:42;98297.50;;;5.57;100.00
75008;BME280;63554;48.940;12.050;2024-02-04T03:09:45;98284.56;;;5.61;100.00
75008;BME280;63554;48.940;12.050;2024-02-04T03:13:49;98280.50;;;5.57;100.00
75008;BME280;63554;48.940;12.050;2024-02-04T03:17:52;98299.66;;;5.53;100.00
75008;BME280;63554;48.940;12.050;2024-02-04T03:21:55;98310.56;;;5.52;100.00
75008;BME280;63554;48.940;12.050;2024-02-04T03:25:57;98303.00;;;5.47;100.00
75008;BME280;63554;48.940;12.050;2024-02-04T03:30:02;98318.75;;;5.42;100.00
75008;BME280;63554;48.940;12.050;2024-02-04T03:34:05;98318.72;;;5.34;100.00
75008;BME280;63554;48.940;12.050;2024-02-04T03:38:07;98321.72;;;5.31;100.00
75008;BME280;63554;48.940;12.050;2024-02-04T03:42:10;98324.91;;;5.26;100.00
75008;BME280;63554;48.940;12.050;2024-02-04T03:46:15;98318.19;;;5.22;100.00
75008;BME280;63554;48.940;12.050;2024-02-04T03:50:18;98315.50;;;5.22;100.00
75008;BME280;63554;48.940;12.050;2024-02-04T03:54:21;98321.50;;;5.16;100.00
75008;BME280;63554;48.940;12.050;2024-02-04T03:58:23;98320.97;;;5.12;100.00
75008;BME280;63554;48.940;12.050;2024-02-04T04:02:32;98307.72;;;5.11;100.00
75008;BME280;63554;48.940;12.050;2024-02-04T04:06:35;98305.53;;;5.06;100.00
75008;BME280;63554;48.940;12.050;2024-02-04T04:10:38;98303.31;;;5.02;100.00
75008;BME280;63554;48.940;12.050;2024-02-04T04:14:41;98307.03;;;5.01;100.00
75008;BME280;63554;48.940;12.050;2024-02-04T04:18:45;98305.50;;;4.98;100.00
75008;BME280;63554;48.940;12.050;2024-02-04T04:22:47;98308.34;;;4.97;100.00
75008;BME280;63554;48.940;12.050;2024-02-04T04:26:50;98300.44;;;4.95;100.00
75008;BME280;63554;48.940;12.050;2024-02-04T04:30:53;98294.41;;;4.93;100.00
75008;BME280;63554;48.940;12.050;2024-02-04T04:34:58;98291.41;;;4.96;100.00
75008;BME280;63554;48.940;12.050;2024-02-04T04:39:01;98293.09;;;4.97;100.00
75008;BME280;63554;48.940;12.050;2024-02-04T04:43:04;98299.13;;;4.99;100.00
75008;BME280;63554;48.940;12.050;2024-02-04T04:47:07;98312.06;;;5.04;100.00
75008;BME280;63554;48.940;12.050;2024-02-04T04:51:12;98289.91;;;5.02;100.00
75008;BME280;63554;48.940;12.050;2024-02-04T04:55:15;98298.31;;;5.07;100.00
75008;BME280;63554;48.940;12.050;2024-02-04T04:59:17;98290.63;;;5.04;100.00
75008;BME280;63554;48.940;12.050;2024-02-04T05:03:20;98292.44;;;5.03;100.00
75008;BME280;63554;48.940;12.050;2024-02-04T05:07:24;98293.28;;;5.04;100.00
75008;BME280;63554;48.940;12.050;2024-02-04T05:11:27;98298.66;;;5.04;100.00
75008;BME280;63554;48.940;12.050;2024-02-04T05:15:30;98285.72;;;4.99;100.00
75008;BME280;63554;48.940;12.050;2024-02-04T05:19:33;98296.44;;;4.99;100.00
75008;BME280;63554;48.940;12.050;2024-02-04T05:23:37;98296.13;;;5.02;100.00
75008;BME280;63554;48.940;12.050;2024-02-04T05:27:40;98286.38;;;5.01;100.00
75008;BME280;63554;48.940;12.050;2024-02-04T05:31:43;98284.72;;;5.00;100.00
75008;BME280;63554;48.940;12.050;2024-02-04T05:35:46;98286.88;;;4.97;100.00
75008;BME280;63554;48.940;12.050;2024-02-04T05:39:50;98290.22;;;4.90;100.00
75008;BME280;63554;48.940;12.050;2024-02-04T05:43:53;98300.06;;;4.90;100.00
75008;BME280;63554;48.940;12.050;2024-02-04T05:47:56;98292.03;;;4.90;100.00
75008;BME280;63554;48.940;12.050;2024-02-04T05:51:59;98300.56;;;4.85;100.00
75008;BME280;63554;48.940;12.050;2024-02-04T05:56:04;98298.38;;;4.81;100.00
75008;BME280;63554;48.940;12.050;2024-02-04T06:00:08;98289.47;;;4.80;100.00
75008;BME280;63554;48.940;12.050;2024-02-04T06:04:12;98294.34;;;4.77;100.00
75008;BME280;63554;48.940;12.050;2024-02-04T06:08:14;98287.91;;;4.69;100.00
75008;BME280;63554;48.940;12.050;2024-02-04T06:12:19;98295.13;;;4.69;100.00
75008;BME280;63554;48.940;12.050;2024-02-04T06:16:21;98292.22;;;4.62;100.00
75008;BME280;63554;48.940;12.050;2024-02-04T06:20:24;98297.06;;;4.59;100.00
75008;BME280;63554;48.940;12.050;2024-02-04T06:24:27;98302.75;;;4.55;100.00
75008;BME280;63554;48.940;12.050;2024-02-04T06:28:31;98302.22;;;4.52;100.00
75008;BME280;63554;48.940;12.050;2024-02-04T06:32:34;98300.38;;;4.52;100.00
75008;BME280;63554;48.940;12.050;2024-02-04T06:36:37;98330.47;;;4.46;100.00
75008;BME280;63554;48.940;12.050;2024-02-04T06:40:40;98313.38;;;4.39;100.00
75008;BME280;63554;48.940;12.050;2024-02-04T06:44:45;98306.00;;;4.41;100.00
75008;BME280;63554;48.940;12.050;2024-02-04T06:48:47;98291.22;;;4.37;100.00
75008;BME280;63554;48.940;12.050;2024-02-04T06:52:50;98303.63;;;4.38;100.00
75008;BME280;63554;48.940;12.050;2024-02-04T06:56:53;98309.97;;;4.37;100.00
75008;BME280;63554;48.940;12.050;2024-02-04T07:00:57;98307.31;;;4.37;100.00
75008;BME280;63554;48.940;12.050;2024-02-04T07:05:00;98308.00;;;4.39;100.00
75008;BME280;63554;48.940;12.050;2024-02-04T07:09:03;98313.03;;;4.42;100.00
75008;BME280;63554;48.940;12.050;2024-02-04T07:13:06;98305.53;;;4.46;100.00
75008;BME280;63554;48.940;12.050;2024-02-04T07:17:11;98323.47;;;4.45;100.00
75008;BME280;63554;48.940;12.050;2024-02-04T07:21:14;98296.97;;;4.42;100.00
75008;BME280;63554;48.940;12.050;2024-02-04T07:25:16;98298.47;;;4.45;100.00
75008;BME280;63554;48.940;12.050;2024-02-04T07:29:19;98306.69;;;4.43;100.00
75008;BME280;63554;48.940;12.050;2024-02-04T07:33:23;98301.00;;;4.46;100.00
75008;BME280;63554;48.940;12.050;2024-02-04T07:37:28;98287.94;;;4.43;100.00
75008;BME280;63554;48.940;12.050;2024-02-04T07:41:31;98297.00;;;4.50;100.00
75008;BME280;63554;48.940;12.050;2024-02-04T07:45:34;98307.56;;;4.52;100.00
75008;BME280;63554;48.940;12.050;2024-02-04T07:49:38;98306.09;;;4.58;100.00
75008;BME280;63554;48.940;12.050;2024-02-04T07:53:41;98311.84;;;4.63;100.00
75008;BME280;63554;48.940;12.050;2024-02-04T07:57:44;98310.00;;;4.63;100.00
75008;BME280;63554;48.940;12.050;2024-02-04T08:01:48;98301.63;;;4.92;100.00
75008;BME280;63554;48.940;12.050;2024-02-04T08:05:52;98294.94;;;4.97;100.00
75008;BME280;63554;48.940;12.050;2024-02-04T08:09:54;98300.28;;;4.97;100.00
75008;BME280;63554;48.940;12.050;2024-02-04T08:13:57;98298.72;;;4.86;100.00
75008;BME280;63554;48.940;12.050;2024-02-04T08:18:01;98290.53;;;4.87;100.00
75008;BME280;63554;48.940;12.050;2024-02-04T08:22:10;98297.59;;;4.88;100.00
75008;BME280;63554;48.940;12.050;2024-02-04T08:26:13;98296.03;;;4.86;100.00
75008;BME280;63554;48.940;12.050;2024-02-04T08:30:16;98295.25;;;4.93;100.00
75008;BME280;63554;48.940;12.050;2024-02-04T08:34:20;98280.16;;;4.92;100.00
75008;BME280;63554;48.940;12.050;2024-02-04T08:38:27;98287.56;;;4.99;100.00
75008;BME280;63554;48.940;12.050;2024-02-04T08:42:29;98280.69;;;4.96;100.00
75008;BME280;63554;48.940;12.050;2024-02-04T08:46:32;98279.88;;;5.04;100.00
75008;BME280;63554;48.940;12.050;2024-02-04T08:50:35;98276.84;;;5.07;100.00
75008;BME280;63554;48.940;12.050;2024-02-04T08:54:39;98292.81;;;5.08;100.00
75008;BME280;63554;48.940;12.050;2024-02-04T08:58:44;98277.03;;;5.13;100.00
75008;BME280;63554;48.940;12.050;2024-02-04T09:02:47;98281.41;;;5.14;100.00
75008;BME280;63554;48.940;12.050;2024-02-04T09:06:51;98287.97;;;5.20;100.00
75008;BME280;63554;48.940;12.050;2024-02-04T09:10:57;98287.81;;;5.22;100.00
75008;BME280;63554;48.940;12.050;2024-02-04T09:15:00;98274.75;;;5.27;100.00
75008;BME280;63554;48.940;12.050;2024-02-04T09:19:03;98286.66;;;5.32;100.00
75008;BME280;63554;48.940;12.050;2024-02-04T09:23:06;98289.06;;;5.44;100.00
75008;BME280;63554;48.940;12.050;2024-02-04T09:27:10;98304.50;;;5.50;100.00
75008;BME280;63554;48.940;12.050;2024-02-04T09:31:13;98302.19;;;5.55;100.00
75008;BME280;63554;48.940;12.050;2024-02-04T09:35:16;98301.00;;;5.58;100.00
75008;BME280;63554;48.940;12.050;2024-02-04T09:39:19;98296.31;;;5.60;100.00
75008;BME280;63554;48.940;12.050;2024-02-04T09:43:24;98296.47;;;5.66;100.00
75008;BME280;63554;48.940;12.050;2024-02-04T09:47:27;98283.56;;;5.70;100.00
75008;BME280;63554;48.940;12.050;2024-02-04T09:51:30;98284.44;;;5.79;100.00
75008;BME280;63554;48.940;12.050;2024-02-04T09:55:34;98281.91;;;5.85;100.00
75008;BME280;63554;48.940;12.050;2024-02-04T09:59:39;98274.88;;;5.92;100.00
75008;BME280;63554;48.940;12.050;2024-02-04T10:03:42;98275.41;;;5.96;100.00
75008;BME280;63554;48.940;12.050;2024-02-04T10:07:44;98273.19;;;6.00;100.00
75008;BME280;63554;48.940;12.050;2024-02-04T10:11:47;98279.25;;;6.02;100.00
75008;BME280;63554;48.940;12.050;2024-02-04T10:15:52;98288.00;;;6.04;100.00
75008;BME280;63554;48.940;12.050;2024-02-04T10:19:54;98291.84;;;6.09;100.00
75008;BME280;63554;48.940;12.050;2024-02-04T10:23:57;98273.53;;;6.13;100.00
75008;BME280;63554;48.940;12.050;2024-02-04T10:28:01;98255.75;;;6.20;100.00
75008;BME280;63554;48.940;12.050;2024-02-04T10:32:05;98247.16;;;6.25;100.00
75008;BME280;63554;48.940;12.050;2024-02-04T10:36:10;98239.75;;;6.27;100.00
75008;BME280;63554;48.940;12.050;2024-02-04T10:40:13;98222.78;;;6.34;100.00
75008;BME280;63554;48.940;12.050;2024-02-04T10:44:16;98225.31;;;6.36;99.42
75008;BME280;63554;48.940;12.050;2024-02-04T10:48:24;98224.97;;;6.39;99.13
75008;BME280;63554;48.940;12.050;2024-02-04T10:52:28;98230.53;;;6.38;99.09
75008;BME280;63554;48.940;12.050;2024-02-04T10:56:36;98228.84;;;6.37;99.10
75008;BME280;63554;48.940;12.050;2024-02-04T11:00:40;98230.34;;;6.39;99.64
75008;BME280;63554;48.940;12.050;2024-02-04T11:04:45;98242.78;;;6.40;99.41
75008;BME280;63554;48.940;12.050;2024-02-04T11:08:51;98227.16;;;6.44;99.54
75008;BME280;63554;48.940;12.050;2024-02-04T11:12:58;98224.97;;;6.47;99.58
75008;BME280;63554;48.940;12.050;2024-02-04T11:17:22;98213.00;;;6.50;98.07
75008;BME280;63554;48.940;12.050;2024-02-04T11:21:58;98195.00;;;6.59;97.88
75008;BME280;63554;48.940;12.050;2024-02-04T11:26:08;98188.44;;;6.61;97.98
75008;BME280;63554;48.940;12.050;2024-02-04T11:30:12;98183.72;;;6.63;97.93
75008;BME280;63554;48.940;12.050;2024-02-04T11:34:17;98175.66;;;6.63;97.64
75008;BME280;63554;48.940;12.050;2024-02-04T11:38:21;98187.75;;;6.67;97.54
75008;BME280;63554;48.940;12.050;2024-02-04T11:42:24;98184.88;;;6.69;97.33
75008;BME280;63554;48.940;12.050;2024-02-04T11:46:28;98182.19;;;6.69;97.46
75008;BME280;63554;48.940;12.050;2024-02-04T11:50:35;98185.88;;;6.68;97.37
75008;BME280;63554;48.940;12.050;2024-02-04T11:54:40;98178.47;;;6.70;97.54
75008;BME280;63554;48.940;12.050;2024-02-04T11:58:43;98176.31;;;6.65;97.31
75008;BME280;63554;48.940;12.050;2024-02-04T12:02:46;98171.28;;;6.70;97.71
75008;BME280;63554;48.940;12.050;2024-02-04T12:06:50;98164.06;;;6.63;97.27
75008;BME280;63554;48.940;12.050;2024-02-04T12:10:54;98161.72;;;6.60;96.51
75008;BME280;63554;48.940;12.050;2024-02-04T12:14:57;98170.44;;;6.62;96.51
75008;BME280;63554;48.940;12.050;2024-02-04T12:19:00;98154.31;;;6.62;96.77
75008;BME280;63554;48.940;12.050;2024-02-04T12:23:05;98146.25;;;6.62;96.78
75008;BME280;63554;48.940;12.050;2024-02-04T12:27:10;98122.88;;;6.62;96.08
75008;BME280;63554;48.940;12.050;2024-02-04T12:31:17;98123.53;;;6.64;95.97
75008;BME280;63554;48.940;12.050;2024-02-04T12:35:20;98126.72;;;6.68;96.12
75008;BME280;63554;48.940;12.050;2024-02-04T12:39:23;98105.84;;;6.70;96.09
75008;BME280;63554;48.940;12.050;2024-02-04T12:43:27;98092.56;;;6.77;95.35
75008;BME280;63554;48.940;12.050;2024-02-04T12:47:30;98103.59;;;6.82;95.45
75008;BME280;63554;48.940;12.050;2024-02-04T12:51:33;98099.91;;;6.83;95.35
75008;BME280;63554;48.940;12.050;2024-02-04T12:55:39;98110.78;;;6.89;95.46
75008;BME280;63554;48.940;12.050;2024-02-04T12:59:45;98092.63;;;6.91;95.08
75008;BME280;63554;48.940;12.050;2024-02-04T13:03:48;98093.09;;;6.95;94.58
75008;BME280;63554;48.940;12.050;2024-02-04T13:07:53;98093.59;;;6.99;94.42
75008;BME280;63554;48.940;12.050;2024-02-04T13:12:02;98084.69;;;6.98;94.54
75008;BME280;63554;48.940;12.050;2024-02-04T13:16:06;98093.25;;;7.02;94.62
75008;BME280;63554;48.940;12.050;2024-02-04T13:20:10;98092.38;;;7.01;95.08
75008;BME280;63554;48.940;12.050;2024-02-04T13:24:14;98083.31;;;7.02;95.11
75008;BME280;63554;48.940;12.050;2024-02-04T13:28:17;98092.38;;;7.01;95.68
75008;BME280;63554;48.940;12.050;2024-02-04T13:32:21;98093.25;;;7.02;95.59
75008;BME280;63554;48.940;12.050;2024-02-04T13:36:24;98088.69;;;7.02;95.48
75008;BME280;63554;48.940;12.050;2024-02-04T13:40:27;98089.19;;;7.06;95.32
75008;BME280;63554;48.940;12.050;2024-02-04T13:44:30;98084.06;;;7.11;95.22
75008;BME280;63554;48.940;12.050;2024-02-04T13:48:34;98092.81;;;7.13;95.18
75008;BME280;63554;48.940;12.050;2024-02-04T13:52:38;98074.28;;;7.18;95.10
75008;BME280;63554;48.940;12.050;2024-02-04T13:56:41;98084.00;;;7.19;94.66
75008;BME280;63554;48.940;12.050;2024-02-04T14:00:44;98061.47;;;7.20;94.78
75008;BME280;63554;48.940;12.050;2024-02-04T14:04:48;98065.47;;;7.24;95.29
75008;BME280;63554;48.940;12.050;2024-02-04T14:08:52;98074.84;;;7.28;94.86
75008;BME280;63554;48.940;12.050;2024-02-04T14:12:54;98062.22;;;7.29;94.69
75008;BME280;63554;48.940;12.050;2024-02-04T14:16:57;98070.28;;;7.29;95.01
75008;BME280;63554;48.940;12.050;2024-02-04T14:21:02;98075.50;;;7.30;94.83
75008;BME280;63554;48.940;12.050;2024-02-04T14:25:05;98074.69;;;7.30;95.37
75008;BME280;63554;48.940;12.050;2024-02-04T14:29:08;98071.50;;;7.26;95.55
75008;BME280;63554;48.940;12.050;2024-02-04T14:33:11;98085.81;;;7.27;95.46
75008;BME280;63554;48.940;12.050;2024-02-04T14:37:15;98082.94;;;7.28;95.64
75008;BME280;63554;48.940;12.050;2024-02-04T14:41:18;98069.66;;;7.27;94.92
75008;BME280;63554;48.940;12.050;2024-02-04T14:45:21;98093.53;;;7.30;94.55
75008;BME280;63554;48.940;12.050;2024-02-04T14:49:24;98088.97;;;7.30;94.73
75008;BME280;63554;48.940;12.050;2024-02-04T14:53:30;98091.50;;;7.32;94.78
75008;BME280;63554;48.940;12.050;2024-02-04T14:57:33;98105.13;;;7.30;95.02
75008;BME280;63554;48.940;12.050;2024-02-04T15:01:36;98121.94;;;7.32;94.67
75008;BME280;63554;48.940;12.050;2024-02-04T15:05:40;98104.41;;;7.37;94.57
75008;BME280;63554;48.940;12.050;2024-02-04T15:09:44;98116.22;;;7.36;94.48
75008;BME280;63554;48.940;12.050;2024-02-04T15:13:47;98114.34;;;7.36;94.27
75008;BME280;63554;48.940;12.050;2024-02-04T15:17:51;98116.03;;;7.37;94.07
75008;BME280;63554;48.940;12.050;2024-02-04T15:21:54;98107.56;;;7.40;94.14
75008;BME280;63554;48.940;12.050;2024-02-04T15:25:59;98097.28;;;7.44;93.48
75008;BME280;63554;48.940;12.050;2024-02-04T15:30:03;98103.56;;;7.59;93.13
75008;BME280;63554;48.940;12.050;2024-02-04T15:34:07;98100.34;;;7.79;91.82
75008;BME280;63554;48.940;12.050;2024-02-04T15:38:11;98094.78;;;7.80;91.56
75008;BME280;63554;48.940;12.050;2024-02-04T15:42:20;98103.03;;;7.79;91.94
75008;BME280;63554;48.940;12.050;2024-02-04T15:46:24;98088.34;;;7.81;91.38
75008;BME280;63554;48.940;12.050;2024-02-04T15:50:27;98087.78;;;7.86;91.18
75008;BME280;63554;48.940;12.050;2024-02-04T15:54:31;98100.06;;;7.88;91.06
75008;BME280;63554;48.940;12.050;2024-02-04T15:58:37;98108.81;;;7.90;91.14
75008;BME280;63554;48.940;12.050;2024-02-04T16:02:40;98113.00;;;7.93;90.87
75008;BME280;63554;48.940;12.050;2024-02-04T16:06:46;98101.56;;;7.91;90.77
75008;BME280;63554;48.940;12.050;2024-02-04T16:10:53;98108.34;;;7.87;91.36
75008;BME280;63554;48.940;12.050;2024-02-04T16:14:59;98110.94;;;7.95;91.60
75008;BME280;63554;48.940;12.050;2024-02-04T16:19:05;98108.69;;;7.84;91.37
75008;BME280;63554;48.940;12.050;2024-02-04T16:23:10;98091.81;;;7.90;91.72
75008;BME280;63554;48.940;12.050;2024-02-04T16:27:13;98097.28;;;7.97;91.15
75008;BME280;63554;48.940;12.050;2024-02-04T16:31:17;98090.31;;;7.87;91.55
75008;BME280;63554;48.940;12.050;2024-02-04T16:35:20;98093.47;;;7.91;91.09
75008;BME280;63554;48.940;12.050;2024-02-04T16:39:23;98110.03;;;7.88;91.53
75008;BME280;63554;48.940;12.050;2024-02-04T16:43:26;98109.63;;;7.91;90.87
75008;BME280;63554;48.940;12.050;2024-02-04T16:47:30;98116.41;;;7.87;91.18
75008;BME280;63554;48.940;12.050;2024-02-04T16:51:37;98107.50;;;7.86;91.00
75008;BME280;63554;48.940;12.050;2024-02-04T16:55:40;98088.81;;;7.85;91.12
75008;BME280;63554;48.940;12.050;2024-02-04T16:59:43;98090.69;;;7.84;91.14
75008;BME280;63554;48.940;12.050;2024-02-04T17:03:49;98103.59;;;7.89;91.09
75008;BME280;63554;48.940;12.050;2024-02-04T17:07:52;98096.16;;;7.91;90.76
75008;BME280;63554;48.940;12.050;2024-02-04T17:11:56;98087.50;;;7.96;90.64
75008;BME280;63554;48.940;12.050;2024-02-04T17:16:00;98092.66;;;7.90;91.01
75008;BME280;63554;48.940;12.050;2024-02-04T17:20:08;98080.00;;;7.91;90.45
75008;BME280;63554;48.940;12.050;2024-02-04T17:24:15;98079.66;;;7.94;90.59
75008;BME280;63554;48.940;12.050;2024-02-04T17:28:21;98074.44;;;7.92;90.34
75008;BME280;63554;48.940;12.050;2024-02-04T17:32:24;98071.72;;;7.92;90.18
75008;BME280;63554;48.940;12.050;2024-02-04T17:36:29;98076.56;;;7.97;90.17
75008;BME280;63554;48.940;12.050;2024-02-04T17:40:32;98080.94;;;7.98;89.74
75008;BME280;63554;48.940;12.050;2024-02-04T17:44:35;98069.97;;;8.00;89.60
75008;BME280;63554;48.940;12.050;2024-02-04T17:48:38;98088.16;;;7.98;89.67
75008;BME280;63554;48.940;12.050;2024-02-04T17:52:44;98095.06;;;8.00;89.73
75008;BME280;63554;48.940;12.050;2024-02-04T17:56:46;98075.91;;;7.95;90.22
75008;BME280;63554;48.940;12.050;2024-02-04T18:00:49;98075.81;;;8.03;89.50
75008;BME280;63554;48.940;12.050;2024-02-04T18:04:53;98066.25;;;8.01;89.62
75008;BME280;63554;48.940;12.050;2024-02-04T18:09:00;98080.19;;;8.04;89.45
75008;BME280;63554;48.940;12.050;2024-02-04T18:13:03;98059.94;;;8.08;89.07
75008;BME280;63554;48.940;12.050;2024-02-04T18:17:07;98030.09;;;8.10;88.90
75008;BME280;63554;48.940;12.050;2024-02-04T18:21:16;98055.25;;;8.17;88.98
75008;BME280;63554;48.940;12.050;2024-02-04T18:25:20;98047.94;;;8.11;89.29
75008;BME280;63554;48.940;12.050;2024-02-04T18:29:23;98055.66;;;8.14;89.05
75008;BME280;63554;48.940;12.050;2024-02-04T18:33:26;98062.44;;;8.10;89.50
75008;BME280;63554;48.940;12.050;2024-02-04T18:37:29;98049.78;;;8.10;89.55
75008;BME280;63554;48.940;12.050;2024-02-04T18:41:33;98082.63;;;8.14;89.37
75008;BME280;63554;48.940;12.050;2024-02-04T18:45:38;98055.72;;;8.21;88.98
75008;BME280;63554;48.940;12.050;2024-02-04T18:49:40;98044.59;;;8.24;88.56
75008;BME280;63554;48.940;12.050;2024-02-04T18:53:44;98058.44;;;8.21;88.79
75008;BME280;63554;48.940;12.050;2024-02-04T18:57:48;98049.16;;;8.23;88.46
75008;BME280;63554;48.940;12.050;2024-02-04T19:01:53;98017.63;;;8.24;88.52
75008;BME280;63554;48.940;12.050;2024-02-04T19:05:56;98016.34;;;8.20;89.19
75008;BME280;63554;48.940;12.050;2024-02-04T19:09:59;98037.16;;;8.26;88.92
75008;BME280;63554;48.940;12.050;2024-02-04T19:14:03;98035.19;;;8.20;89.10
75008;BME280;63554;48.940;12.050;2024-02-04T19:18:06;98043.53;;;8.25;89.08
75008;BME280;63554;48.940;12.050;2024-02-04T19:22:10;98049.34;;;8.22;89.31
75008;BME280;63554;48.940;12.050;2024-02-04T19:26:14;98051.00;;;8.23;89.15
75008;BME280;63554;48.940;12.050;2024-02-04T19:30:20;98046.25;;;8.25;89.19
75008;BME280;63554;48.940;12.050;2024-02-04T19:34:23;98049.97;;;8.24;89.28
75008;BME280;63554;48.940;12.050;2024-02-04T19:38:26;98023.84;;;8.24;89.29
75008;BME280;63554;48.940;12.050;2024-02-04T19:42:29;98041.31;;;8.28;88.48
75008;BME280;63554;48.940;12.050;2024-02-04T19:46:33;98030.81;;;8.34;87.98
75008;BME280;63554;48.940;12.050;2024-02-04T19:50:36;98007.72;;;8.31;87.89
75008;BME280;63554;48.940;12.050;2024-02-04T19:54:38;98025.03;;;8.37;87.03
75008;BME280;63554;48.940;12.050;2024-02-04T19:58:41;98018.81;;;8.36;86.85
75008;BME280;63554;48.940;12.050;2024-02-04T20:02:45;98038.16;;;8.40;86.48
75008;BME280;63554;48.940;12.050;2024-02-04T20:06:48;98032.59;;;8.41;86.45
75008;BME280;63554;48.940;12.050;2024-02-04T20:10:51;98029.41;;;8.38;86.42
75008;BME280;63554;48.940;12.050;2024-02-04T20:14:54;98024.00;;;8.38;86.09
75008;BME280;63554;48.940;12.050;2024-02-04T20:18:58;98011.53;;;8.37;86.11
75008;BME280;63554;48.940;12.050;2024-02-04T20:23:07;98031.06;;;8.39;85.83
75008;BME280;63554;48.940;12.050;2024-02-04T20:27:10;98031.06;;;8.39;85.91
75008;BME280;63554;48.940;12.050;2024-02-04T20:31:13;98038.72;;;8.35;86.08
75008;BME280;63554;48.940;12.050;2024-02-04T20:35:17;98051.47;;;8.41;85.37
75008;BME280;63554;48.940;12.050;2024-02-04T20:39:20;98018.16;;;8.34;86.03
75008;BME280;63554;48.940;12.050;2024-02-04T20:43:23;98046.16;;;8.33;85.76
75008;BME280;63554;48.940;12.050;2024-02-04T20:47:26;98037.22;;;8.32;85.55
75008;BME280;63554;48.940;12.050;2024-02-04T20:51:30;98037.41;;;8.31;85.77
75008;BME280;63554;48.940;12.050;2024-02-04T20:55:33;98041.50;;;8.27;85.94
75008;BME280;63554;48.940;12.050;2024-02-04T20:59:36;98016.59;;;8.25;85.92
75008;BME280;63554;48.940;12.050;2024-02-04T21:03:38;98028.66;;;8.29;85.87
75008;BME280;63554;48.940;12.050;2024-02-04T21:07:43;98037.78;;;8.28;86.30
75008;BME280;63554;48.940;12.050;2024-02-04T21:11:47;98026.19;;;8.27;86.00
75008;BME280;63554;48.940;12.050;2024-02-04T21:15:51;98019.50;;;8.23;86.08
75008;BME280;63554;48.940;12.050;2024-02-04T21:19:54;98012.22;;;8.24;85.90
75008;BME280;63554;48.940;12.050;2024-02-04T21:23:58;98018.84;;;8.21;86.06